createdAt,value
2018-07-25T00:00:23.705Z,98019.48
2018-07-25T00:02:52.682Z,98023.30
2018-07-25T00:05:21.740Z,98023.61
2018-07-25T00:07:50.724Z,98021.27
2018-07-25T00:10:19.731Z,98016.49
2018-07-25T00:12:48.895Z,98019.13
2018-07-25T00:15:17.976Z,98017.91
2018-07-25T00:17:47.098Z,98017.81
2018-07-25T00:20:16.079Z,98015.17
2018-07-25T00:22:45.109Z,98011.54
2018-07-25T00:25:14.112Z,98007.27
2018-07-25T00:27:43.085Z,98004.73
2018-07-25T00:30:12.083Z,98002.39
2018-07-25T00:32:41.063Z,97997.93
2018-07-25T00:35:10.121Z,98000.14
2018-07-25T00:37:39.150Z,97988.09
2018-07-25T00:40:08.180Z,97988.77
2018-07-25T00:42:37.159Z,97983.59
2018-07-25T00:45:06.225Z,97984.70
2018-07-25T00:47:35.207Z,97980.53
2018-07-25T00:50:04.346Z,97981.84
2018-07-25T00:52:33.400Z,97989.97
2018-07-25T00:55:02.432Z,97983.16
2018-07-25T00:57:31.469Z,97985.80
2018-07-25T01:00:00.480Z,97989.66
2018-07-25T01:02:29.553Z,97984.38
2018-07-25T01:04:58.539Z,97982.34
2018-07-25T01:07:27.618Z,97986.80
2018-07-25T01:09:56.620Z,97988.72
2018-07-25T01:12:25.632Z,97983.45
2018-07-25T01:14:54.688Z,97986.47
2018-07-25T01:17:23.659Z,97979.56
2018-07-25T01:19:52.851Z,97979.73
2018-07-25T01:22:21.852Z,97980.48
2018-07-25T01:24:50.904Z,97981.66
2018-07-25T01:27:19.968Z,97981.66
2018-07-25T01:29:48.991Z,97977.27
2018-07-25T01:32:18.060Z,97985.46
2018-07-25T01:34:47.097Z,97984.14
2018-07-25T01:37:16.079Z,97981.51
2018-07-25T01:39:45.117Z,97986.50
2018-07-25T01:42:14.156Z,97990.17
2018-07-25T01:44:43.168Z,97990.02
2018-07-25T01:47:12.243Z,97989.52
2018-07-25T01:49:41.276Z,97992.22
2018-07-25T01:52:10.336Z,97993.86
2018-07-25T01:54:39.333Z,98002.34
2018-07-25T01:57:08.523Z,97993.20
2018-07-25T01:59:37.491Z,97994.31
2018-07-25T02:02:06.653Z,98002.73
2018-07-25T02:04:35.653Z,98004.71
2018-07-25T02:07:04.953Z,98008.98
2018-07-25T02:09:34.009Z,98003.49
2018-07-25T02:12:03.084Z,98001.86
2018-07-25T02:14:32.129Z,98004.28
2018-07-25T02:17:01.116Z,98006.41
2018-07-25T02:19:30.115Z,98001.95
2018-07-25T02:21:59.114Z,97999.98
2018-07-25T02:24:28.213Z,97996.46
2018-07-25T02:26:57.199Z,97998.78
2018-07-25T02:29:26.175Z,98006.41
2018-07-25T02:31:55.301Z,98003.49
2018-07-25T02:34:24.340Z,98006.03
2018-07-25T02:36:53.613Z,98004.71
2018-07-25T02:39:22.640Z,98002.80
2018-07-25T02:41:51.639Z,98009.70
2018-07-25T02:44:20.611Z,98010.25
2018-07-25T02:46:49.644Z,98006.52
2018-07-25T02:49:18.696Z,98008.05
2018-07-25T02:51:47.656Z,98009.97
2018-07-25T02:54:16.661Z,98008.27
2018-07-25T02:56:45.647Z,98010.25
2018-07-25T02:59:14.740Z,98011.72
2018-07-25T03:01:43.731Z,98011.50
2018-07-25T03:04:12.724Z,98015.31
2018-07-25T03:06:41.720Z,98007.93
2018-07-25T03:09:10.966Z,98005.80
2018-07-25T03:11:40.192Z,98012.17
2018-07-25T03:14:09.178Z,98020.97
2018-07-25T03:16:38.305Z,98021.69
2018-07-25T03:19:07.433Z,98019.37
2018-07-25T03:21:36.466Z,98014.09
2018-07-25T03:24:05.517Z,98012.98
2018-07-25T03:26:34.589Z,98017.66
2018-07-25T03:29:03.748Z,98019.66
2018-07-25T03:31:32.773Z,98020.92
2018-07-25T03:34:01.944Z,98022.09
2018-07-25T03:36:30.940Z,98016.97
2018-07-25T03:38:59.899Z,98020.11
2018-07-25T03:41:28.898Z,98024.38
2018-07-25T03:43:57.925Z,98024.16
2018-07-25T03:46:27.030Z,98037.20
2018-07-25T03:48:56.014Z,98037.44
2018-07-25T03:51:25.136Z,98036.12
2018-07-25T03:53:54.165Z,98038.97
2018-07-25T03:56:23.288Z,98042.20
2018-07-25T03:58:52.295Z,98040.49
2018-07-25T04:01:21.324Z,98044.73
2018-07-25T04:03:50.372Z,98043.41
2018-07-25T04:06:19.372Z,98046.44
2018-07-25T04:08:48.490Z,98045.50
2018-07-25T04:11:17.479Z,98044.18
2018-07-25T04:13:46.475Z,98052.92
2018-07-25T04:16:15.464Z,98045.94
2018-07-25T04:18:44.451Z,98052.53
2018-07-25T04:21:13.492Z,98050.50
2018-07-25T04:23:42.549Z,98052.77
2018-07-25T04:26:11.663Z,98048.74
2018-07-25T04:28:40.644Z,98051.95
2018-07-25T04:31:09.648Z,98052.98
2018-07-25T04:33:38.648Z,98053.37
2018-07-25T04:36:07.633Z,98057.11
2018-07-25T04:38:36.636Z,98054.85
2018-07-25T04:41:05.626Z,98056.53
2018-07-25T04:43:34.708Z,98053.98
2018-07-25T04:46:03.812Z,98059.55
2018-07-25T04:48:32.791Z,98056.63
2018-07-25T04:51:01.861Z,98055.14
2018-07-25T04:53:30.844Z,98053.72
2018-07-25T04:55:59.851Z,98054.91
2018-07-25T04:58:29.765Z,98055.19
2018-07-25T05:00:59.624Z,98055.36
2018-07-25T05:03:28.623Z,98058.06
2018-07-25T05:05:57.715Z,98059.55
2018-07-25T05:08:26.704Z,98060.94
2018-07-25T05:10:55.760Z,98061.84
2018-07-25T05:13:24.768Z,98064.65
2018-07-25T05:15:53.748Z,98061.51
2018-07-25T05:18:22.800Z,98069.42
2018-07-25T05:20:51.766Z,98072.13
2018-07-25T05:23:20.798Z,98070.75
2018-07-25T05:25:49.766Z,98072.34
2018-07-25T05:28:18.808Z,98075.30
2018-07-25T05:30:47.796Z,98069.81
2018-07-25T05:33:16.792Z,98077.58
2018-07-25T05:35:45.836Z,98075.70
2018-07-25T05:38:14.889Z,98077.09
2018-07-25T05:40:44.058Z,98074.77
2018-07-25T05:43:13.189Z,98081.30
2018-07-25T05:45:42.163Z,98077.27
2018-07-25T05:48:11.168Z,98082.92
2018-07-25T05:50:40.134Z,98077.08
2018-07-25T05:53:09.176Z,98082.63
2018-07-25T05:55:38.267Z,98084.24
2018-07-25T05:58:07.280Z,98086.27
2018-07-25T06:00:36.395Z,98090.23
2018-07-25T06:03:05.532Z,98093.33
2018-07-25T06:05:34.505Z,98100.11
2018-07-25T06:08:03.487Z,98095.40
2018-07-25T06:10:32.571Z,98098.66
2018-07-25T06:13:01.596Z,98090.07
2018-07-25T06:15:30.689Z,98081.83
2018-07-25T06:17:59.707Z,98093.00
2018-07-25T06:20:28.685Z,98096.89
2018-07-25T06:22:57.757Z,98095.17
2018-07-25T06:25:26.755Z,98092.98
2018-07-25T06:27:55.849Z,98092.48
2018-07-25T06:30:24.856Z,98097.09
2018-07-25T06:32:53.968Z,98092.91
2018-07-25T06:35:22.992Z,98093.41
2018-07-25T06:37:52.063Z,98090.63
2018-07-25T06:40:21.136Z,98095.47
2018-07-25T06:42:50.200Z,98097.44
2018-07-25T06:45:20.144Z,98104.70
2018-07-25T06:47:49.135Z,98101.16
2018-07-25T06:50:18.248Z,98095.98
2018-07-25T06:52:47.240Z,98106.29
2018-07-25T06:55:16.276Z,98102.95
2018-07-25T06:57:45.296Z,98106.09
2018-07-25T07:00:14.374Z,98102.53
2018-07-25T07:02:43.393Z,98101.34
2018-07-25T07:05:12.401Z,98103.02
2018-07-25T07:07:41.456Z,98107.39
2018-07-25T07:10:10.463Z,98104.64
2018-07-25T07:12:39.544Z,98110.98
2018-07-25T07:15:09.849Z,98112.94
2018-07-25T07:17:38.888Z,98112.24
2018-07-25T07:20:07.919Z,98109.28
2018-07-25T07:22:36.912Z,98116.93
2018-07-25T07:25:06.704Z,98121.61
2018-07-25T07:27:35.908Z,98123.45
2018-07-25T07:30:05.448Z,98128.20
2018-07-25T07:32:34.458Z,98121.73
2018-07-25T07:35:03.504Z,98127.27
2018-07-25T07:37:32.618Z,98130.22
2018-07-25T07:40:01.620Z,98128.04
2018-07-25T07:42:30.608Z,98123.41
2018-07-25T07:44:59.789Z,98121.95
2018-07-25T07:47:28.793Z,98126.20
2018-07-25T07:49:57.875Z,98125.45
2018-07-25T07:52:26.855Z,98125.48
2018-07-25T07:54:55.904Z,98127.63
2018-07-25T07:57:24.881Z,98130.41
2018-07-25T07:59:54.099Z,98121.48
2018-07-25T08:02:23.177Z,98119.98
2018-07-25T08:04:52.389Z,98121.06
2018-07-25T08:07:21.399Z,98121.27
2018-07-25T08:09:50.397Z,98124.72
2018-07-25T08:12:19.399Z,98121.45
2018-07-25T08:14:48.446Z,98121.22
2018-07-25T08:17:17.536Z,98126.41
2018-07-25T08:19:46.781Z,98127.41
2018-07-25T08:22:15.885Z,98117.02
2018-07-25T08:24:44.904Z,98117.54
2018-07-25T08:27:13.892Z,98120.16
2018-07-25T08:29:42.893Z,98121.06
2018-07-25T08:32:12.926Z,98128.34
2018-07-25T08:34:42.052Z,98127.98
2018-07-25T08:37:11.044Z,98124.34
2018-07-25T08:39:40.070Z,98120.73
2018-07-25T08:42:09.113Z,98120.74
2018-07-25T08:44:38.166Z,98124.64
2018-07-25T08:47:07.228Z,98126.12
2018-07-25T08:49:36.261Z,98131.29
2018-07-25T08:52:08.287Z,98122.08
2018-07-25T08:54:37.324Z,98116.46
2018-07-25T08:57:06.673Z,98115.64
2018-07-25T08:59:35.640Z,98115.42
2018-07-25T09:02:04.707Z,98105.08
2018-07-25T09:04:33.778Z,98111.97
2018-07-25T09:07:02.995Z,98104.08
2018-07-25T09:09:32.153Z,98111.41
2018-07-25T09:12:01.145Z,98102.16
2018-07-25T09:14:30.934Z,98102.86
2018-07-25T09:16:59.904Z,98108.15
2018-07-25T09:19:28.968Z,98108.33
2018-07-25T09:21:57.996Z,98108.05
2018-07-25T09:24:27.012Z,98113.48
2018-07-25T09:26:56.557Z,98107.85
2018-07-25T09:29:25.540Z,98112.73
2018-07-25T09:31:54.605Z,98104.75
2018-07-25T09:34:23.637Z,98109.27
2018-07-25T09:36:52.609Z,98112.14
2018-07-25T09:39:21.652Z,98109.88
2018-07-25T09:41:50.671Z,98113.53
2018-07-25T09:44:19.681Z,98114.74
2018-07-25T09:46:48.714Z,98118.50
2018-07-25T09:49:17.856Z,98127.63
2018-07-25T09:51:47.228Z,98129.57
2018-07-25T09:54:16.312Z,98127.05
2018-07-25T09:56:45.315Z,98136.23
2018-07-25T09:59:14.343Z,98126.98
2018-07-25T10:01:43.465Z,98132.59
2018-07-25T10:04:13.280Z,98126.50
2018-07-25T10:06:42.278Z,98125.75
2018-07-25T10:09:13.008Z,98124.53
2018-07-25T10:11:42.071Z,98121.88
2018-07-25T10:14:11.473Z,98128.13
2018-07-25T10:16:40.587Z,98126.84
2018-07-25T10:19:09.790Z,98123.84
2018-07-25T10:21:38.860Z,98125.27
2018-07-25T10:24:08.242Z,98130.72
2018-07-25T10:26:37.280Z,98039.02
2018-07-25T10:29:06.361Z,98127.66
2018-07-25T10:31:35.397Z,98131.55
2018-07-25T10:34:06.715Z,98124.23
2018-07-25T10:36:36.354Z,98123.49
2018-07-25T10:39:08.106Z,98122.42
2018-07-25T10:41:37.179Z,98121.62
2018-07-25T10:44:06.442Z,98126.55
2018-07-25T10:46:35.660Z,98122.17
2018-07-25T10:49:05.056Z,98127.31
2018-07-25T10:51:34.136Z,98124.88
2018-07-25T10:54:03.198Z,98122.88
2018-07-25T10:56:32.250Z,98118.89
2018-07-25T10:59:01.378Z,98122.79
2018-07-25T11:01:30.351Z,98118.02
2018-07-25T11:03:59.429Z,98115.82
2018-07-25T11:06:28.459Z,98117.52
2018-07-25T11:08:57.514Z,98126.16
2018-07-25T11:11:30.014Z,98128.76
2018-07-25T11:14:00.361Z,98123.34
2018-07-25T11:16:29.473Z,98124.85
2018-07-25T11:18:58.519Z,98124.42
2018-07-25T11:21:27.753Z,98118.52
2018-07-25T11:23:56.862Z,98110.05
2018-07-25T11:26:25.884Z,98099.22
2018-07-25T11:28:55.068Z,98096.70
2018-07-25T11:31:24.123Z,98088.53
2018-07-25T11:33:53.272Z,98084.23
2018-07-25T11:36:22.269Z,98082.11
2018-07-25T11:38:51.299Z,98092.25
2018-07-25T11:41:20.344Z,98094.94
2018-07-25T11:43:49.618Z,98091.16
2018-07-25T11:46:18.616Z,98103.48
2018-07-25T11:48:47.571Z,98102.69
2018-07-25T11:51:16.685Z,98105.09
2018-07-25T11:53:46.255Z,98102.70
2018-07-25T11:56:15.243Z,98109.92
2018-07-25T11:58:44.279Z,98109.63
2018-07-25T12:01:13.435Z,98102.94
2018-07-25T12:03:42.357Z,98098.92
2018-07-25T12:06:11.401Z,98089.25
2018-07-25T12:08:40.560Z,98084.94
2018-07-25T12:11:10.254Z,98087.31
2018-07-25T12:13:39.367Z,98080.61
2018-07-25T12:16:08.513Z,98080.44
2018-07-25T12:18:37.500Z,98075.27
2018-07-25T12:21:07.463Z,98075.33
2018-07-25T12:23:36.491Z,98073.55
2018-07-25T12:26:05.712Z,98068.11
2018-07-25T12:28:34.746Z,98071.55
2018-07-25T12:31:04.175Z,98070.10
2018-07-25T12:33:33.211Z,98080.23
2018-07-25T12:36:02.203Z,98075.46
2018-07-25T12:38:31.295Z,98075.77
2018-07-25T12:41:00.343Z,98074.73
2018-07-25T12:43:29.621Z,98070.83
2018-07-25T12:45:58.812Z,98071.23
2018-07-25T12:48:27.893Z,98073.12
2018-07-25T12:50:56.944Z,98068.27
2018-07-25T12:53:26.057Z,98069.30
2018-07-25T12:55:55.150Z,98068.62
2018-07-25T12:58:24.300Z,98068.50
2018-07-25T13:00:53.368Z,98068.13
2018-07-25T13:03:22.380Z,98062.82
2018-07-25T13:05:51.372Z,98061.98
2018-07-25T13:08:20.473Z,98061.25
2018-07-25T13:10:49.485Z,98060.73
2018-07-25T13:13:18.565Z,98063.13
2018-07-25T13:15:47.614Z,98065.27
2018-07-25T13:18:16.794Z,98065.81
2018-07-25T13:20:45.784Z,98064.98
2018-07-25T13:23:14.807Z,98064.92
2018-07-25T13:25:43.825Z,98062.17
2018-07-25T13:28:12.850Z,98056.82
2018-07-25T13:30:41.869Z,98063.56
2018-07-25T13:33:10.969Z,98058.56
2018-07-25T13:35:40.144Z,98070.59
2018-07-25T13:38:09.228Z,98065.25
2018-07-25T13:40:38.261Z,98068.63
2018-07-25T13:43:07.373Z,98068.42
2018-07-25T13:45:36.395Z,98056.56
2018-07-25T13:48:05.755Z,98066.45
2018-07-25T13:50:34.800Z,98064.52
2018-07-25T13:53:04.146Z,98068.16
2018-07-25T13:55:33.199Z,98076.23
2018-07-25T13:58:02.336Z,98073.22
2018-07-25T14:00:31.424Z,98070.95
2018-07-25T14:03:00.437Z,98077.50
2018-07-25T14:05:29.851Z,98075.65
2018-07-25T14:07:59.150Z,98066.41
2018-07-25T14:10:28.488Z,98066.20
2018-07-25T14:12:57.597Z,98057.91
2018-07-25T14:15:26.632Z,98059.16
2018-07-25T14:17:55.763Z,98064.48
2018-07-25T14:20:24.909Z,98062.01
2018-07-25T14:22:53.918Z,98059.34
2018-07-25T14:25:24.009Z,98057.27
2018-07-25T14:27:53.156Z,98062.94
2018-07-25T14:30:22.592Z,98070.90
2018-07-25T14:32:51.560Z,98077.63
2018-07-25T14:35:20.728Z,98083.27
2018-07-25T14:37:49.763Z,98084.78
2018-07-25T14:40:18.859Z,98082.91
2018-07-25T14:42:47.793Z,98083.62
2018-07-25T14:45:16.907Z,98088.59
2018-07-25T14:47:46.216Z,98089.05
2018-07-25T14:50:16.136Z,98092.09
2018-07-25T14:52:45.264Z,98097.92
2018-07-25T14:55:14.247Z,98101.08
2018-07-25T14:57:43.248Z,98097.09
2018-07-25T15:00:12.580Z,98094.86
2018-07-25T15:02:41.631Z,98085.95
2018-07-25T15:05:10.796Z,98094.18
2018-07-25T15:07:39.861Z,98092.02
2018-07-25T15:10:08.936Z,98093.97
2018-07-25T15:13:12.347Z,98100.38
2018-07-25T15:15:41.349Z,98101.27
2018-07-25T15:18:10.344Z,98105.02
2018-07-25T15:20:39.362Z,98098.36
2018-07-25T15:23:08.500Z,98103.94
2018-07-25T15:25:37.621Z,98105.78
2018-07-25T15:28:06.769Z,98092.80
2018-07-25T15:30:35.787Z,98090.25
2018-07-25T15:33:04.857Z,98091.56
2018-07-25T15:35:34.007Z,98091.14
2018-07-25T15:38:03.308Z,98094.06
2018-07-25T15:40:32.312Z,98095.96
2018-07-25T15:43:01.464Z,98107.45
2018-07-25T15:45:30.460Z,98109.00
2018-07-25T15:47:59.524Z,98115.48
2018-07-25T15:50:28.942Z,98119.75
2018-07-25T15:52:58.351Z,98122.29
2018-07-25T15:55:27.396Z,98124.81
2018-07-25T15:57:56.485Z,98131.50
2018-07-25T16:00:25.538Z,98143.08
2018-07-25T16:02:54.544Z,98150.80
2018-07-25T16:05:23.555Z,98160.59
2018-07-25T16:07:52.551Z,98171.18
2018-07-25T16:10:21.769Z,98174.84
2018-07-25T16:12:51.008Z,98179.95
2018-07-25T16:15:20.223Z,98183.01
2018-07-25T16:17:49.292Z,98180.17
2018-07-25T16:20:18.700Z,98181.11
2018-07-25T16:22:48.046Z,98180.05
2018-07-25T16:25:17.360Z,98185.08
2018-07-25T16:27:46.436Z,98179.70
2018-07-25T16:30:15.553Z,98180.80
2018-07-25T16:32:44.866Z,98184.34
2018-07-25T16:35:13.951Z,98174.36
2018-07-25T16:37:43.335Z,98175.34
2018-07-25T16:40:12.551Z,98177.94
2018-07-25T16:42:41.968Z,98179.61
2018-07-25T16:45:11.248Z,98181.91
2018-07-25T16:47:40.341Z,98182.95
2018-07-25T16:50:09.837Z,98180.43
2018-07-25T16:52:39.167Z,98179.77
2018-07-25T16:55:08.445Z,98178.98
2018-07-25T16:57:37.816Z,98177.78
2018-07-25T17:00:07.184Z,98177.55
2018-07-25T17:02:36.642Z,98178.98
2018-07-25T17:05:05.824Z,98180.67
2018-07-25T17:07:35.121Z,98184.74
2018-07-25T17:10:04.507Z,98183.19
2018-07-25T17:12:33.908Z,98179.21
2018-07-25T17:15:03.288Z,98177.75
2018-07-25T17:17:32.491Z,98172.91
2018-07-25T17:20:01.605Z,98183.36
2018-07-25T17:22:30.656Z,98184.32
2018-07-25T17:24:59.734Z,98186.69
2018-07-25T17:27:28.793Z,98188.27
2018-07-25T17:29:57.772Z,98188.60
2018-07-25T17:32:26.779Z,98194.52
2018-07-25T17:34:55.940Z,98196.73
2018-07-25T17:37:25.584Z,98205.92
2018-07-25T17:39:54.695Z,98208.36
2018-07-25T17:42:23.795Z,98216.36
2018-07-25T17:44:52.850Z,98219.58
2018-07-25T17:47:21.970Z,98218.41
2018-07-25T17:49:52.027Z,98225.97
2018-07-25T17:52:22.157Z,98225.53
2018-07-25T17:54:51.362Z,98237.14
2018-07-25T17:57:20.372Z,98247.68
2018-07-25T17:59:49.444Z,98252.09
2018-07-25T18:02:18.699Z,98260.41
2018-07-25T18:04:47.941Z,98262.98
2018-07-25T18:07:17.195Z,98270.96
2018-07-25T18:09:46.389Z,98278.57
2018-07-25T18:12:15.491Z,98273.72
2018-07-25T18:14:44.607Z,98273.94
2018-07-25T18:17:13.765Z,98283.11
2018-07-25T18:19:42.796Z,98292.36
2018-07-25T18:22:11.919Z,98297.43
2018-07-25T18:27:08.825Z,98301.44
2018-07-25T18:29:37.838Z,98293.52
2018-07-25T18:32:06.944Z,98292.33
2018-07-25T18:34:36.049Z,98294.16
2018-07-25T18:37:05.132Z,98300.87
2018-07-25T18:39:34.193Z,98297.52
2018-07-25T18:42:03.308Z,98301.58
2018-07-25T18:44:32.347Z,98303.47
2018-07-25T18:47:01.452Z,98312.05
2018-07-25T18:49:30.408Z,98307.84
2018-07-25T18:51:59.460Z,98310.02
2018-07-25T18:54:28.504Z,98306.09
2018-07-25T18:56:57.573Z,98301.55
2018-07-25T18:59:26.544Z,98302.59
2018-07-25T19:01:55.579Z,98302.09
2018-07-25T19:04:24.613Z,98304.55
2018-07-25T19:06:53.617Z,98303.44
2018-07-25T19:09:22.614Z,98307.83
2018-07-25T19:11:51.724Z,98301.59
2018-07-25T19:14:25.802Z,98305.39
2018-07-25T19:16:54.776Z,98299.30
2018-07-25T19:19:23.885Z,98302.12
2018-07-25T19:21:52.881Z,98300.62
2018-07-25T19:24:21.904Z,98304.26
2018-07-25T19:26:50.923Z,98302.02
2018-07-25T19:29:20.100Z,98298.05
2018-07-25T19:31:49.253Z,98302.75
2018-07-25T19:34:18.220Z,98302.94
2018-07-25T19:36:47.296Z,98301.83
2018-07-25T19:39:16.349Z,98296.87
2018-07-25T19:41:45.567Z,98298.42
2018-07-25T19:44:14.556Z,98297.64
2018-07-25T19:46:43.545Z,98302.70
2018-07-25T19:49:12.599Z,98297.90
2018-07-25T19:51:41.567Z,98300.61
2018-07-25T19:54:10.527Z,98296.44
2018-07-25T19:56:39.504Z,98298.08
2018-07-25T19:59:08.540Z,98290.05
2018-07-25T20:01:37.731Z,98286.59
2018-07-25T20:04:06.952Z,98284.78
2018-07-25T20:06:36.296Z,98280.00
2018-07-25T20:09:08.396Z,98277.28
2018-07-25T20:11:37.509Z,98276.60
2018-07-25T20:14:11.661Z,98271.35
2018-07-25T20:16:40.825Z,98272.56
2018-07-25T20:19:09.787Z,98267.68
2018-07-25T20:21:38.928Z,98273.48
2018-07-25T20:24:08.028Z,98272.95
2018-07-25T20:26:37.073Z,98270.45
2018-07-25T20:29:06.105Z,98270.95
2018-07-25T20:31:35.589Z,98267.34
2018-07-25T20:34:04.647Z,98269.51
2018-07-25T20:36:33.636Z,98268.69
2018-07-25T20:39:04.015Z,98270.01
2018-07-25T20:41:34.010Z,98276.18
2018-07-25T20:44:02.995Z,98268.77
2018-07-25T20:46:32.000Z,98262.70
2018-07-25T20:49:01.167Z,98261.48
2018-07-25T20:51:30.157Z,98266.78
2018-07-25T20:53:59.234Z,98264.89
2018-07-25T20:56:28.483Z,98264.98
2018-07-25T20:58:57.593Z,98268.86
2018-07-25T21:01:26.680Z,98267.27
2018-07-25T21:03:55.836Z,98270.70
2018-07-25T21:06:24.885Z,98274.16
2018-07-25T21:08:54.077Z,98278.53
2018-07-25T21:11:23.262Z,98278.45
2018-07-25T21:13:52.321Z,98279.36
2018-07-25T21:16:21.364Z,98282.71
2018-07-25T21:18:51.064Z,98283.20
2018-07-25T21:21:20.167Z,98290.33
2018-07-25T21:23:49.059Z,98291.65
2018-07-25T21:26:18.056Z,98289.52
2018-07-25T21:28:48.165Z,98228.66
2018-07-25T21:31:17.284Z,98289.73
2018-07-25T21:33:46.284Z,98286.80
2018-07-25T21:36:15.269Z,98288.33
2018-07-25T21:38:44.316Z,98277.05
2018-07-25T21:41:13.292Z,98288.30
2018-07-25T21:43:42.312Z,98287.90
2018-07-25T21:46:11.289Z,98297.12
2018-07-25T21:48:40.324Z,98296.92
2018-07-25T21:51:09.352Z,98302.20
2018-07-25T21:53:38.396Z,98303.22
2018-07-25T21:56:07.387Z,98296.42
2018-07-25T21:58:36.397Z,98300.87
2018-07-25T22:01:15.313Z,98301.28
2018-07-25T22:03:44.799Z,98306.15
2018-07-25T22:06:14.392Z,98299.47
2018-07-25T22:08:43.406Z,98304.83
2018-07-25T22:11:12.432Z,98302.20
2018-07-25T22:13:46.339Z,98294.61
2018-07-25T22:16:15.320Z,98295.52
2018-07-25T22:18:44.947Z,98295.52
2018-07-25T22:21:14.080Z,98295.02
2018-07-25T22:23:43.088Z,98290.45
2018-07-25T22:26:12.173Z,98291.36
2018-07-25T22:28:41.260Z,98287.81
2018-07-25T22:31:10.240Z,98297.25
2018-07-25T22:33:39.220Z,98301.00
2018-07-25T22:36:08.897Z,98294.13
2018-07-25T22:38:38.001Z,98295.94
2018-07-25T22:41:07.221Z,98292.59
2018-07-25T22:43:36.437Z,98284.48
2018-07-25T22:46:05.522Z,98285.07
2018-07-25T22:48:34.609Z,98287.33
2018-07-25T22:51:03.607Z,98288.73
2018-07-25T22:53:32.608Z,98287.20
2018-07-25T22:56:01.676Z,98290.55
2018-07-25T22:58:30.667Z,98302.02
2018-07-25T23:00:59.769Z,98303.14
2018-07-25T23:03:28.836Z,98302.81
2018-07-25T23:05:57.844Z,98303.52
2018-07-25T23:08:26.908Z,98303.13
2018-07-25T23:10:56.187Z,98304.83
2018-07-25T23:13:25.516Z,98304.34
2018-07-25T23:15:54.581Z,98299.97
2018-07-25T23:18:23.556Z,98302.72
2018-07-25T23:20:52.549Z,98303.02
2018-07-25T23:23:21.582Z,98305.53
2018-07-25T23:25:50.565Z,98314.05
2018-07-25T23:28:19.523Z,98312.03
2018-07-25T23:30:48.500Z,98320.55
2018-07-25T23:33:17.512Z,98315.57
2018-07-25T23:35:46.551Z,98320.92
2018-07-25T23:38:15.747Z,98324.61
2018-07-25T23:40:44.728Z,98319.63
2018-07-25T23:43:13.711Z,98314.56
2018-07-25T23:45:42.733Z,98310.38
2018-07-25T23:48:11.708Z,98303.09
2018-07-25T23:50:40.720Z,98317.91
2018-07-25T23:53:09.836Z,98298.23
2018-07-25T23:55:38.824Z,98314.45
2018-07-25T23:58:07.775Z,98311.70
